Cornland, IL (62519)

2:46 PM CDT on July 06, 2015 (GMT -0500)
Logan County Prairie | | Change Station
CLOSE
Current Station
Personal Weather Station
Location: Mount Pulaski, IL
Elevation: 604 ft
Nearby Weather Stations

Elev 604 ft 39.93 °N, 89.27 °W | Updated 19 seconds ago

Partly Cloudy
Partly Cloudy
90.1 °F
Feels Like 108 °F
N
4.9
Wind Variable Wind from North
Gusts 7.4 mph

Today
High -- | Low -- °F
--% Chance of Precip.
Yesterday
High -- | Low -- °F
Precip. -- in
5:35 AM 8:29 PM
Waning Gibbous, 73% visible
Pressure 29.93 in
Visibility 10.0 miles
Clouds Mostly Cloudy 2900 ft
Mostly Cloudy 4400 ft
Heat Index 108 °F
Dew Point 80 °F
Humidity 72%
Rainfall 0.00 in
Snow Depth Not available.
UV 6 out of 12
Pollen 4.10 out of 12
Air Quality Not available.
Flu Activity Not available.
METAR KSPI 061852Z 21010KT 10SM BKN029 BKN044 31/24 A2994 RMK AO2 SLP134 T03110244

More Conditions Fewer Conditions

Pressure 29.93 in
Visibility 10.0 miles
Clouds Mostly Cloudy 2900 ft
Mostly Cloudy 4400 ft
Heat Index 108 °F
Dew Point 80 °F
Humidity 72%
Rainfall 0.00 in
Snow Depth Not available.
UV 6 out of 12
Pollen 4.10 out of 12
Air Quality Not available.
Flu Activity Not available.
METAR KSPI 061852Z 21010KT 10SM BKN029 BKN044 31/24 A2994 RMK AO2 SLP134 T03110244

More Conditions Fewer Conditions

10-Day Weather Forecast

×

Almanac

Astronomy

Jul. 06, 2015 Rise Set
Actual Time
Civil Twilight
Nautical Twilight
Astronomical Twilight
Moon
Length of Visible Light
Length of Day
Tomorrow will be .
, % of the Moon is Illuminated

Today's Extremes

State Highs State Lows

Community

WunderPhotos

Upload Photos

1,835,625 photos uploaded!

WunderBlogs® & News

Nearby

Air Quality

  Air Quality AQ Index Pollutant
Not available.

Snow Depth

Station Depth Elevation

Earthquake Activity

City Distance Mag. Time & Date
Minimum magnitude displayed is 2.5.

Coastal Water Temperatures

Place Temperature

Stations

Nearby Weather Stations

Station Location Temp. Windchill Dew Point Humidity Wind Precip. Elev Updated Type